createdAt,value
2022-09-26T00:00:14.152Z,1.60
2022-09-26T00:02:40.699Z,1.38
2022-09-26T00:05:08.908Z,1.45
2022-09-26T00:07:35.484Z,1.85
2022-09-26T00:10:02.442Z,2.25
2022-09-26T00:12:28.954Z,1.80
2022-09-26T00:14:55.585Z,2.67
2022-09-26T00:17:22.153Z,2.10
2022-09-26T00:19:48.677Z,0.40
2022-09-26T00:22:15.545Z,0.60
2022-09-26T00:24:42.068Z,1.70
2022-09-26T00:27:08.616Z,2.35
2022-09-26T00:29:35.252Z,2.25
2022-09-26T00:32:01.813Z,1.88
2022-09-26T00:34:28.369Z,1.80
2022-09-26T00:36:55.605Z,2.28
2022-09-26T00:39:22.132Z,2.25
2022-09-26T00:41:49.134Z,2.00
2022-09-26T00:44:46.746Z,2.15
2022-09-26T00:47:32.144Z,2.35
2022-09-26T00:50:21.394Z,2.10
2022-09-26T00:52:59.220Z,2.28
2022-09-26T00:55:30.414Z,2.10
2022-09-26T00:58:01.377Z,2.03
2022-09-26T01:00:28.481Z,2.25
2022-09-26T01:02:55.087Z,2.53
2022-09-26T01:05:23.236Z,2.40
2022-09-26T01:07:51.428Z,2.50
2022-09-26T01:10:18.785Z,2.22
2022-09-26T01:12:45.551Z,1.90
2022-09-26T01:15:12.963Z,3.33
2022-09-26T01:17:42.328Z,2.50
2022-09-26T01:20:43.393Z,1.95
2022-09-26T01:23:18.996Z,1.83
2022-09-26T01:26:24.228Z,2.55
2022-09-26T01:29:09.586Z,2.40
2022-09-26T01:32:10.509Z,2.30
2022-09-26T01:34:46.933Z,2.65
2022-09-26T01:37:22.764Z,2.45
2022-09-26T01:40:08.180Z,2.47
2022-09-26T01:42:46.931Z,2.85
2022-09-26T01:45:22.948Z,2.28
2022-09-26T01:48:03.584Z,2.30
2022-09-26T01:50:35.779Z,3.15
2022-09-26T01:53:13.443Z,2.00
2022-09-26T01:55:48.890Z,2.15
2022-09-26T01:58:24.371Z,2.40
2022-09-26T02:00:51.747Z,2.65
2022-09-26T02:03:28.012Z,1.73
2022-09-26T02:05:58.499Z,2.22
2022-09-26T02:08:30.850Z,1.88
2022-09-26T02:11:08.959Z,2.22
2022-09-26T02:13:41.772Z,2.50
2022-09-26T02:16:12.024Z,2.22
2022-09-26T02:18:43.680Z,2.30
2022-09-26T02:21:15.157Z,2.28
2022-09-26T02:23:41.828Z,2.50
2022-09-26T02:26:08.432Z,2.20
2022-09-26T02:28:35.139Z,2.10
2022-09-26T02:31:03.495Z,2.20
2022-09-26T02:33:30.091Z,2.33
2022-09-26T02:35:59.717Z,2.17
2022-09-26T02:38:30.943Z,2.38
2022-09-26T02:41:16.043Z,2.42
2022-09-26T02:44:19.315Z,2.45
2022-09-26T02:47:04.609Z,2.00
2022-09-26T02:49:58.873Z,2.13
2022-09-26T02:52:43.558Z,2.03
2022-09-26T02:55:22.581Z,2.05
2022-09-26T02:58:27.717Z,2.38
2022-09-26T03:01:16.061Z,2.00
2022-09-26T03:04:21.212Z,2.08
2022-09-26T03:06:51.611Z,2.20
2022-09-26T03:09:18.625Z,1.77
2022-09-26T03:11:45.828Z,2.20
2022-09-26T03:14:13.381Z,2.00
2022-09-26T03:16:42.282Z,2.50
2022-09-26T03:19:22.625Z,2.10
2022-09-26T03:21:49.291Z,2.13
2022-09-26T03:24:15.970Z,2.33
2022-09-26T03:26:42.952Z,2.15
2022-09-26T03:29:09.640Z,1.70
2022-09-26T03:31:36.407Z,2.25
2022-09-26T03:34:03.430Z,1.83
2022-09-26T03:36:30.127Z,2.30
2022-09-26T03:38:56.697Z,2.10
2022-09-26T03:41:23.347Z,2.05
2022-09-26T03:43:50.027Z,2.15
2022-09-26T03:46:16.730Z,2.20
2022-09-26T03:48:43.395Z,2.60
2022-09-26T03:51:12.336Z,2.25
2022-09-26T03:53:42.935Z,2.15
2022-09-26T03:56:12.013Z,1.88
2022-09-26T03:58:39.236Z,1.83
2022-09-26T04:01:11.723Z,2.20
2022-09-26T04:03:40.458Z,1.90
2022-09-26T04:06:10.984Z,2.45
2022-09-26T04:08:39.275Z,2.22
2022-09-26T04:11:08.125Z,2.50
2022-09-26T04:13:50.813Z,2.25
2022-09-26T04:16:22.223Z,2.10
2022-09-26T04:18:48.926Z,1.88
2022-09-26T04:21:16.272Z,1.90
2022-09-26T04:23:44.348Z,2.35
2022-09-26T04:26:21.712Z,1.75
2022-09-26T04:28:52.310Z,2.78
2022-09-26T04:31:19.098Z,2.53
2022-09-26T04:33:45.767Z,2.80
2022-09-26T04:36:14.395Z,2.15
2022-09-26T04:38:41.279Z,1.95
2022-09-26T04:41:13.141Z,1.73
2022-09-26T04:43:40.413Z,2.60
2022-09-26T04:46:11.844Z,2.65
2022-09-26T04:48:38.536Z,2.60
2022-09-26T04:51:10.242Z,2.38
2022-09-26T04:53:38.511Z,2.67
2022-09-26T04:56:06.501Z,2.10
2022-09-26T04:58:33.287Z,2.55
2022-09-26T05:01:05.264Z,3.22
2022-09-26T05:03:33.379Z,2.80
2022-09-26T05:05:59.996Z,2.78
2022-09-26T05:08:27.066Z,2.60
2022-09-26T05:10:55.246Z,2.60
2022-09-26T05:13:23.096Z,2.47
2022-09-26T05:15:55.419Z,2.67
2022-09-26T05:18:26.252Z,2.70
2022-09-26T05:20:53.723Z,2.53
2022-09-26T05:23:44.572Z,2.58
2022-09-26T05:26:20.819Z,2.80
2022-09-26T05:29:06.802Z,3.10
2022-09-26T05:31:37.973Z,2.85
2022-09-26T05:34:14.209Z,2.97
2022-09-26T05:36:43.529Z,2.90
2022-09-26T05:39:30.140Z,3.28
2022-09-26T05:41:57.509Z,2.72
2022-09-26T05:44:24.069Z,2.90
2022-09-26T05:46:52.084Z,2.88
2022-09-26T05:49:18.771Z,3.50
2022-09-26T05:51:46.646Z,3.10
2022-09-26T05:54:13.682Z,2.80
2022-09-26T05:56:40.412Z,3.13
2022-09-26T05:59:07.102Z,2.95
2022-09-26T06:01:34.668Z,2.50
2022-09-26T06:04:03.070Z,3.08
2022-09-26T06:06:30.177Z,2.88
2022-09-26T06:08:56.840Z,2.70
2022-09-26T06:11:28.211Z,3.22
2022-09-26T06:13:56.132Z,2.92
2022-09-26T06:16:22.891Z,4.00
2022-09-26T06:18:52.602Z,3.20
2022-09-26T06:21:20.280Z,3.30
2022-09-26T06:23:46.986Z,3.05
2022-09-26T06:26:17.567Z,3.03
2022-09-26T06:28:44.292Z,2.85
2022-09-26T06:31:13.039Z,2.90
2022-09-26T06:33:39.687Z,2.75
2022-09-26T06:36:08.208Z,2.40
2022-09-26T06:38:35.751Z,2.53
2022-09-26T06:41:03.305Z,2.88
2022-09-26T06:43:31.431Z,2.53
2022-09-26T06:45:58.131Z,3.10
2022-09-26T06:48:27.797Z,2.88
2022-09-26T06:50:57.256Z,2.70
2022-09-26T06:53:23.969Z,3.08
2022-09-26T06:55:50.623Z,3.30
2022-09-26T06:58:17.762Z,3.67
2022-09-26T07:00:44.594Z,4.03
2022-09-26T07:03:12.118Z,4.00
2022-09-26T07:05:39.919Z,4.25
2022-09-26T07:08:06.878Z,3.95
2022-09-26T07:10:36.650Z,4.63
2022-09-26T07:13:05.941Z,4.13
2022-09-26T07:15:34.362Z,3.42
2022-09-26T07:18:06.504Z,3.75
2022-09-26T07:20:36.343Z,3.92
2022-09-26T07:23:08.751Z,3.42
2022-09-26T07:25:35.612Z,5.82
2022-09-26T07:28:02.827Z,2.97
2022-09-26T07:30:29.528Z,2.67
2022-09-26T07:33:03.434Z,2.50
2022-09-26T07:35:31.288Z,1.95
2022-09-26T07:37:58.401Z,2.15
2022-09-26T07:40:26.359Z,2.10
2022-09-26T07:43:15.265Z,2.00
2022-09-26T07:45:58.427Z,1.80
2022-09-26T07:48:43.610Z,1.98
2022-09-26T07:51:11.909Z,1.90
2022-09-26T07:53:41.217Z,1.88
2022-09-26T07:56:11.089Z,2.15
2022-09-26T07:58:44.728Z,2.08
2022-09-26T08:01:13.177Z,1.67
2022-09-26T08:03:40.725Z,2.33
2022-09-26T08:06:07.804Z,1.67
2022-09-26T08:08:35.436Z,1.50
2022-09-26T08:11:04.281Z,1.83
2022-09-26T08:13:32.618Z,3.15
2022-09-26T08:16:04.545Z,1.80
2022-09-26T08:18:31.366Z,2.25
2022-09-26T08:20:58.054Z,2.10
2022-09-26T08:23:24.799Z,1.58
2022-09-26T08:25:51.483Z,2.47
2022-09-26T08:28:18.495Z,1.85
2022-09-26T08:30:45.121Z,2.42
2022-09-26T08:33:12.804Z,2.88
2022-09-26T08:35:39.580Z,1.08
2022-09-26T08:38:09.179Z,1.45
2022-09-26T08:40:53.115Z,1.30
2022-09-26T08:43:46.950Z,1.30
2022-09-26T08:46:43.673Z,1.00
2022-09-26T08:49:42.435Z,1.77
2022-09-26T08:52:23.255Z,1.13
2022-09-26T08:54:50.679Z,1.58
2022-09-26T08:57:40.788Z,1.10
2022-09-26T09:00:19.181Z,0.90
2022-09-26T09:03:07.762Z,1.00
2022-09-26T09:05:41.232Z,0.80
2022-09-26T09:08:22.440Z,0.80
2022-09-26T09:11:07.407Z,0.93
2022-09-26T09:13:53.546Z,0.80
2022-09-26T09:16:34.734Z,1.10
2022-09-26T09:19:23.642Z,1.00
2022-09-26T09:21:58.727Z,1.08
2022-09-26T09:24:52.958Z,0.85
2022-09-26T09:30:26.253Z,0.70
2022-09-26T09:33:13.234Z,1.08
2022-09-26T09:35:44.118Z,1.23
2022-09-26T09:38:15.557Z,0.70
2022-09-26T09:40:47.087Z,0.60
2022-09-26T09:43:17.465Z,0.70
2022-09-26T09:45:55.961Z,0.55
2022-09-26T09:48:26.565Z,0.65
2022-09-26T09:51:11.256Z,0.75
2022-09-26T09:54:08.309Z,0.80
2022-09-26T09:57:03.222Z,0.70
2022-09-26T09:59:35.709Z,0.60
2022-09-26T10:02:24.704Z,0.70
2022-09-26T10:05:02.344Z,0.60
2022-09-26T10:07:28.991Z,0.80
2022-09-26T10:09:55.783Z,0.70
2022-09-26T10:12:28.925Z,0.70
2022-09-26T10:15:07.705Z,0.90
2022-09-26T10:17:34.275Z,1.50
2022-09-26T10:20:01.079Z,0.68
2022-09-26T10:22:36.120Z,1.30
2022-09-26T10:25:08.803Z,1.40
2022-09-26T10:27:47.771Z,1.88
2022-09-26T10:30:21.415Z,1.92
2022-09-26T10:32:56.019Z,1.27
2022-09-26T10:35:29.634Z,1.23
2022-09-26T10:38:01.621Z,0.93
2022-09-26T10:40:45.902Z,2.35
2022-09-26T10:43:21.135Z,1.48
2022-09-26T10:45:55.130Z,1.40
2022-09-26T10:48:34.901Z,1.08
2022-09-26T10:51:02.058Z,1.00
2022-09-26T10:53:34.837Z,1.63
2022-09-26T10:56:06.996Z,1.10
2022-09-26T10:58:40.125Z,0.90
2022-09-26T11:01:07.370Z,0.90
2022-09-26T11:03:40.483Z,0.82
2022-09-26T11:06:34.581Z,1.25
2022-09-26T11:09:03.160Z,0.98
2022-09-26T11:11:34.108Z,1.10
2022-09-26T11:14:07.503Z,1.05
2022-09-26T11:16:49.055Z,0.75
2022-09-26T11:19:27.025Z,0.90
2022-09-26T11:22:11.724Z,1.08
2022-09-26T11:36:22.765Z,0.70
2022-09-26T11:39:05.011Z,0.90
2022-09-26T11:41:48.983Z,0.98
2022-09-26T11:44:17.477Z,1.25
2022-09-26T11:47:04.015Z,1.05
2022-09-26T11:49:46.191Z,1.17
2022-09-26T11:52:35.885Z,0.80
2022-09-26T11:55:20.627Z,1.05
2022-09-26T11:58:03.557Z,0.95
2022-09-26T12:00:59.364Z,1.40
2022-09-26T12:04:07.919Z,1.23
2022-09-26T12:06:42.923Z,1.65
2022-09-26T12:09:20.939Z,1.02
2022-09-26T12:12:04.446Z,0.90
2022-09-26T12:14:45.550Z,1.00
2022-09-26T12:17:18.912Z,1.27
2022-09-26T12:19:51.648Z,0.80
2022-09-26T12:22:29.941Z,0.90
2022-09-26T12:25:08.787Z,0.77
2022-09-26T12:27:44.687Z,1.23
2022-09-26T12:30:15.375Z,1.27
2022-09-26T12:33:06.452Z,1.02
2022-09-26T12:36:00.655Z,0.90
2022-09-26T12:38:37.401Z,1.02
2022-09-26T12:41:15.946Z,0.80
2022-09-26T12:44:14.094Z,1.05
2022-09-26T12:46:55.688Z,1.15
2022-09-26T12:49:28.422Z,0.93
2022-09-26T12:52:01.654Z,1.02
2022-09-26T12:54:43.969Z,1.00
2022-09-26T12:57:13.465Z,1.10
2022-09-26T12:59:55.182Z,1.20
2022-09-26T13:02:33.739Z,0.90
2022-09-26T13:05:23.968Z,0.70
2022-09-26T13:08:02.582Z,0.82
2022-09-26T13:10:44.687Z,1.10
2022-09-26T13:13:46.604Z,1.15
2022-09-26T13:16:19.191Z,0.77
2022-09-26T13:18:52.542Z,0.82
2022-09-26T13:21:38.626Z,0.90
2022-09-26T13:24:13.955Z,1.23
2022-09-26T13:26:45.336Z,1.13
2022-09-26T13:29:21.018Z,0.80
2022-09-26T13:31:55.884Z,1.08
2022-09-26T13:34:37.704Z,2.53
2022-09-26T13:37:05.509Z,1.52
2022-09-26T13:39:52.673Z,0.98
2022-09-26T13:42:40.967Z,0.73
2022-09-26T13:45:16.577Z,0.93
2022-09-26T13:48:02.985Z,1.85
2022-09-26T13:50:41.404Z,1.42
2022-09-26T13:53:21.835Z,1.00
2022-09-26T13:56:29.738Z,1.25
2022-09-26T13:59:05.968Z,0.80
2022-09-26T14:01:33.796Z,1.00
2022-09-26T14:04:20.698Z,0.90
2022-09-26T14:07:28.864Z,1.17
2022-09-26T14:10:07.742Z,0.98
2022-09-26T14:13:08.619Z,1.13
2022-09-26T14:15:47.652Z,0.95
2022-09-26T14:18:59.265Z,0.70
2022-09-26T14:21:34.877Z,1.08
2022-09-26T14:24:29.537Z,1.23
2022-09-26T14:27:16.946Z,1.48
2022-09-26T14:29:46.766Z,0.88
2022-09-26T14:32:35.155Z,1.10
2022-09-26T14:35:15.297Z,1.35
2022-09-26T14:37:43.069Z,1.02
2022-09-26T14:40:09.547Z,0.80
2022-09-26T14:42:44.741Z,1.10
2022-09-26T14:45:17.074Z,1.00
2022-09-26T14:47:50.466Z,0.85
2022-09-26T14:50:25.490Z,0.80
2022-09-26T14:52:57.975Z,0.80
2022-09-26T14:55:25.632Z,0.88
2022-09-26T14:57:52.577Z,0.80
2022-09-26T15:00:38.072Z,0.70
2022-09-26T15:03:07.513Z,0.95
2022-09-26T15:05:34.343Z,0.75
2022-09-26T15:08:01.459Z,1.10
2022-09-26T15:10:40.306Z,0.80
2022-09-26T15:13:19.674Z,0.88
2022-09-26T15:16:09.957Z,0.88
2022-09-26T15:18:49.902Z,1.23
2022-09-26T15:21:33.297Z,1.05
2022-09-26T15:24:02.823Z,1.10
2022-09-26T15:26:33.666Z,1.30
2022-09-26T15:29:00.578Z,1.33
2022-09-26T15:31:38.601Z,1.05
2022-09-26T15:34:16.817Z,1.02
2022-09-26T15:36:45.532Z,1.27
2022-09-26T15:39:30.604Z,1.40
2022-09-26T15:42:36.537Z,0.82
2022-09-26T15:45:23.527Z,0.93
2022-09-26T15:47:50.255Z,0.80
2022-09-26T15:50:31.652Z,1.20
2022-09-26T15:53:16.533Z,1.17
2022-09-26T15:56:05.923Z,1.02
2022-09-26T15:58:43.983Z,1.10
2022-09-26T16:01:16.343Z,0.80
2022-09-26T16:03:49.897Z,1.30
2022-09-26T16:06:35.553Z,0.80
2022-09-26T16:09:06.789Z,1.08
2022-09-26T16:11:33.938Z,0.90
2022-09-26T16:14:00.929Z,1.25
2022-09-26T16:16:32.227Z,0.85
2022-09-26T16:19:03.129Z,1.17
2022-09-26T16:21:33.960Z,0.70
2022-09-26T16:24:22.461Z,1.17
2022-09-26T16:26:51.454Z,1.30
2022-09-26T16:29:31.526Z,1.02
2022-09-26T16:31:59.668Z,1.00
2022-09-26T16:34:26.409Z,1.10
2022-09-26T16:36:53.473Z,1.00
2022-09-26T16:39:26.972Z,1.00
2022-09-26T16:42:01.856Z,1.30
2022-09-26T16:44:36.722Z,0.80
2022-09-26T16:47:06.501Z,1.08
2022-09-26T16:49:47.221Z,1.40
2022-09-26T16:52:22.848Z,1.40
2022-09-26T16:54:49.686Z,1.10
2022-09-26T16:57:21.089Z,1.13
2022-09-26T16:59:47.987Z,1.73
2022-09-26T17:02:15.328Z,1.02
2022-09-26T17:04:43.012Z,1.30
2022-09-26T17:07:18.450Z,0.63
2022-09-26T17:09:45.085Z,1.02
2022-09-26T17:12:22.051Z,1.50
2022-09-26T17:14:52.097Z,0.90
2022-09-26T17:17:25.470Z,1.80
2022-09-26T17:19:59.129Z,1.20
2022-09-26T17:22:28.274Z,1.05
2022-09-26T17:24:55.123Z,1.40
2022-09-26T17:27:34.140Z,1.50
2022-09-26T17:30:03.076Z,1.52
2022-09-26T17:32:33.159Z,1.45
2022-09-26T17:35:02.755Z,1.75
2022-09-26T17:37:29.908Z,1.30
2022-09-26T17:39:57.006Z,1.70
2022-09-26T17:42:25.381Z,1.15
2022-09-26T17:44:52.182Z,1.40
2022-09-26T17:47:19.528Z,1.40
2022-09-26T17:49:52.521Z,1.55
2022-09-26T17:52:29.177Z,1.02
2022-09-26T17:54:58.697Z,2.38
2022-09-26T17:57:30.197Z,1.48
2022-09-26T17:59:57.822Z,1.50
2022-09-26T18:02:37.898Z,1.38
2022-09-26T18:05:10.666Z,1.40
2022-09-26T18:07:40.382Z,1.63
2022-09-26T18:10:17.107Z,1.30
2022-09-26T18:12:45.488Z,1.05
2022-09-26T18:15:16.220Z,1.13
2022-09-26T18:17:43.704Z,1.45
2022-09-26T18:20:10.337Z,1.30
2022-09-26T18:22:36.988Z,1.67
2022-09-26T18:25:05.992Z,1.60
2022-09-26T18:27:36.973Z,1.10
2022-09-26T18:30:04.579Z,1.10
2022-09-26T18:32:32.959Z,1.10
2022-09-26T18:35:00.538Z,1.50
2022-09-26T18:37:27.188Z,1.42
2022-09-26T18:39:55.784Z,1.00
2022-09-26T18:42:24.692Z,1.33
2022-09-26T18:45:00.639Z,1.17
2022-09-26T18:47:27.329Z,0.90
2022-09-26T18:49:54.026Z,1.23
2022-09-26T18:52:20.799Z,1.20
2022-09-26T18:55:07.411Z,1.00
2022-09-26T18:57:52.486Z,1.52
2022-09-26T19:00:19.689Z,1.00
2022-09-26T19:02:46.495Z,1.42
2022-09-26T19:05:15.587Z,1.27
2022-09-26T19:07:44.889Z,1.20
2022-09-26T19:10:18.063Z,1.25
2022-09-26T19:12:44.734Z,1.30
2022-09-26T19:15:15.344Z,1.33
2022-09-26T19:17:42.269Z,1.77
2022-09-26T19:20:09.323Z,1.15
2022-09-26T19:22:36.164Z,1.20
2022-09-26T19:25:02.970Z,1.23
2022-09-26T19:27:46.718Z,1.08
2022-09-26T19:30:20.033Z,1.00
2022-09-26T19:32:49.360Z,1.30
2022-09-26T19:35:31.909Z,1.00
2022-09-26T19:37:59.819Z,1.23
2022-09-26T19:40:27.318Z,1.00
2022-09-26T19:42:55.059Z,1.27
2022-09-26T19:45:22.320Z,1.10
2022-09-26T19:47:52.414Z,1.48
2022-09-26T19:50:21.563Z,1.25
2022-09-26T19:52:51.041Z,0.98
2022-09-26T19:55:24.102Z,0.93
2022-09-26T19:57:51.509Z,1.50
2022-09-26T20:00:19.704Z,1.45
2022-09-26T20:02:47.319Z,1.10
2022-09-26T20:05:20.331Z,1.40
2022-09-26T20:07:47.423Z,1.20
2022-09-26T20:10:17.106Z,1.67
2022-09-26T20:12:44.776Z,1.80
2022-09-26T20:15:13.231Z,1.30
2022-09-26T20:17:41.774Z,1.50
2022-09-26T20:20:14.559Z,1.27
2022-09-26T20:22:42.587Z,1.05
2022-09-26T20:25:27.034Z,1.38
2022-09-26T20:27:54.414Z,1.20
2022-09-26T20:30:40.186Z,1.42
2022-09-26T20:33:07.269Z,0.95
2022-09-26T20:35:36.932Z,0.82
2022-09-26T20:38:07.413Z,1.20
2022-09-26T20:40:35.104Z,0.90
2022-09-26T20:43:10.396Z,1.00
2022-09-26T20:45:40.962Z,1.00
2022-09-26T20:48:08.793Z,1.00
2022-09-26T20:50:38.598Z,1.05
2022-09-26T20:53:22.758Z,1.20
2022-09-26T20:55:50.471Z,1.10
2022-09-26T20:58:17.269Z,1.23
2022-09-26T21:00:44.539Z,1.00
2022-09-26T21:03:13.261Z,1.00
2022-09-26T21:05:40.135Z,1.20
2022-09-26T21:08:11.287Z,1.10
2022-09-26T21:10:38.190Z,1.00
2022-09-26T21:13:05.639Z,1.20
2022-09-26T21:15:33.469Z,1.02
2022-09-26T21:18:01.075Z,0.95
2022-09-26T21:20:32.717Z,1.20
2022-09-26T21:23:02.409Z,1.25
2022-09-26T21:25:31.939Z,1.17
2022-09-26T21:28:31.034Z,1.00
2022-09-26T21:30:59.865Z,1.00
2022-09-26T21:33:26.637Z,0.93
2022-09-26T21:35:53.331Z,1.20
2022-09-26T21:38:20.580Z,1.30
2022-09-26T21:40:49.760Z,1.08
2022-09-26T21:43:21.393Z,1.20
2022-09-26T21:45:50.840Z,1.00
2022-09-26T21:48:17.551Z,0.95
2022-09-26T21:50:56.738Z,1.10
2022-09-26T21:53:28.309Z,1.13
2022-09-26T21:55:57.126Z,0.98
2022-09-26T21:58:27.432Z,1.23
2022-09-26T22:00:54.065Z,1.00
2022-09-26T22:03:20.780Z,1.30
2022-09-26T22:05:47.386Z,1.30
2022-09-26T22:08:14.009Z,1.10
2022-09-26T22:10:40.640Z,0.90
2022-09-26T22:13:07.670Z,0.90
2022-09-26T22:15:34.268Z,1.00
2022-09-26T22:18:01.214Z,1.17
2022-09-26T22:20:27.834Z,1.10
2022-09-26T22:22:54.423Z,1.00
2022-09-26T22:25:21.393Z,1.05
2022-09-26T22:27:47.995Z,1.33
2022-09-26T22:30:14.636Z,0.88
2022-09-26T22:32:41.296Z,0.90
2022-09-26T22:35:08.090Z,1.30
2022-09-26T22:37:35.171Z,1.23
2022-09-26T22:40:02.611Z,0.82
2022-09-26T22:42:29.334Z,0.98
2022-09-26T22:44:55.949Z,1.08
2022-09-26T22:47:22.585Z,1.08
2022-09-26T22:49:49.723Z,0.88
2022-09-26T22:52:16.397Z,1.05
2022-09-26T22:54:43.100Z,1.10
2022-09-26T22:57:09.838Z,1.23
2022-09-26T22:59:36.672Z,0.77
2022-09-26T23:02:04.652Z,1.17
2022-09-26T23:04:47.131Z,1.13
2022-09-26T23:07:19.064Z,1.02
2022-09-26T23:09:46.245Z,0.90
2022-09-26T23:12:13.513Z,1.02
2022-09-26T23:14:40.405Z,1.20
2022-09-26T23:17:07.150Z,1.00
2022-09-26T23:19:33.992Z,1.08
2022-09-26T23:22:01.027Z,1.20
2022-09-26T23:24:27.765Z,1.00
2022-09-26T23:26:54.494Z,0.88
2022-09-26T23:29:21.105Z,0.88
2022-09-26T23:31:47.709Z,1.05
2022-09-26T23:34:14.549Z,0.93
2022-09-26T23:36:41.290Z,1.00
2022-09-26T23:39:08.049Z,1.10
2022-09-26T23:41:34.768Z,0.90
2022-09-26T23:44:01.935Z,0.90
2022-09-26T23:46:28.809Z,1.10
2022-09-26T23:48:55.698Z,1.33
2022-09-26T23:51:22.484Z,1.00
2022-09-26T23:53:49.432Z,0.90
2022-09-26T23:56:16.473Z,0.75
2022-09-26T23:58:43.217Z,1.20
